createdAt,value
2023-03-27T00:03:03.172Z,100.00
2023-03-27T00:08:09.388Z,100.00
2023-03-27T00:13:13.652Z,100.00
2023-03-27T00:18:20.185Z,100.00
2023-03-27T00:23:24.477Z,100.00
2023-03-27T00:28:30.346Z,100.00
2023-03-27T00:33:36.022Z,100.00
2023-03-27T00:38:40.593Z,100.00
2023-03-27T00:43:45.520Z,100.00
2023-03-27T00:48:52.440Z,100.00
2023-03-27T00:53:57.535Z,100.00
2023-03-27T00:59:04.017Z,100.00
2023-03-27T01:04:10.020Z,100.00
2023-03-27T01:09:20.551Z,100.00
2023-03-27T01:14:32.732Z,100.00
2023-03-27T01:20:14.317Z,100.00
2023-03-27T01:25:56.937Z,100.00
2023-03-27T01:31:10.282Z,100.00
2023-03-27T01:36:40.476Z,100.00
2023-03-27T01:41:52.888Z,100.00
2023-03-27T01:47:00.724Z,100.00
2023-03-27T01:52:09.235Z,100.00
2023-03-27T01:57:20.503Z,100.00
2023-03-27T02:02:28.130Z,100.00
2023-03-27T02:07:35.756Z,100.00
2023-03-27T02:12:46.918Z,100.00
2023-03-27T02:17:57.156Z,100.00
2023-03-27T02:23:01.977Z,100.00
2023-03-27T02:28:34.861Z,100.00
2023-03-27T02:33:48.864Z,100.00
2023-03-27T02:38:59.310Z,100.00
2023-03-27T02:44:13.075Z,100.00
2023-03-27T02:49:34.468Z,100.00
2023-03-27T02:54:42.150Z,100.00
2023-03-27T02:59:52.120Z,100.00
2023-03-27T03:05:00.992Z,100.00
2023-03-27T03:10:11.730Z,100.00
2023-03-27T03:15:18.613Z,100.00
2023-03-27T03:20:24.685Z,100.00
2023-03-27T03:25:30.734Z,100.00
2023-03-27T03:30:42.131Z,100.00
2023-03-27T03:35:49.722Z,100.00
2023-03-27T03:41:11.472Z,100.00
2023-03-27T03:46:17.283Z,100.00
2023-03-27T03:51:22.246Z,100.00
2023-03-27T03:56:27.824Z,100.00
2023-03-27T04:01:33.683Z,100.00
2023-03-27T04:06:43.208Z,100.00
2023-03-27T04:11:47.624Z,100.00
2023-03-27T04:17:02.868Z,100.00
2023-03-27T04:22:07.136Z,100.00
2023-03-27T04:27:13.781Z,100.00
2023-03-27T04:32:40.284Z,100.00
2023-03-27T04:38:10.483Z,100.00
2023-03-27T04:43:26.006Z,100.00
2023-03-27T04:48:32.740Z,100.00
2023-03-27T04:53:43.030Z,100.00
2023-03-27T04:58:48.805Z,100.00
2023-03-27T05:03:55.285Z,100.00
2023-03-27T05:09:11.274Z,100.00
2023-03-27T05:14:16.389Z,100.00
2023-03-27T05:19:22.094Z,100.00
2023-03-27T05:24:34.210Z,100.00
2023-03-27T05:29:46.970Z,100.00
2023-03-27T05:34:55.613Z,100.00
2023-03-27T05:40:01.935Z,100.00
2023-03-27T05:45:08.358Z,100.00
2023-03-27T05:50:19.209Z,100.00
2023-03-27T05:55:26.398Z,100.00
2023-03-27T06:00:34.327Z,100.00
2023-03-27T06:05:41.527Z,100.00
2023-03-27T06:10:46.824Z,100.00
2023-03-27T06:16:01.220Z,100.00
2023-03-27T06:21:25.707Z,100.00
2023-03-27T06:26:35.409Z,100.00
2023-03-27T06:31:40.839Z,100.00
2023-03-27T06:36:51.085Z,100.00
2023-03-27T06:41:56.412Z,100.00
2023-03-27T06:47:05.648Z,100.00
2023-03-27T06:52:31.224Z,100.00
2023-03-27T06:57:48.760Z,100.00
2023-03-27T07:02:56.977Z,100.00
2023-03-27T07:08:31.226Z,100.00
2023-03-27T07:13:37.054Z,100.00
2023-03-27T07:18:43.590Z,100.00
2023-03-27T07:23:49.136Z,100.00
2023-03-27T07:29:03.949Z,100.00
2023-03-27T07:34:08.824Z,100.00
2023-03-27T07:39:35.499Z,100.00
2023-03-27T07:44:39.916Z,100.00
2023-03-27T07:49:45.590Z,100.00
2023-03-27T07:54:52.600Z,100.00
2023-03-27T07:59:59.677Z,100.00
2023-03-27T08:05:32.674Z,100.00
2023-03-27T08:10:45.242Z,100.00
2023-03-27T08:15:49.731Z,100.00
2023-03-27T08:21:03.214Z,100.00
2023-03-27T08:26:10.790Z,100.00
2023-03-27T08:31:34.431Z,100.00
2023-03-27T08:36:41.600Z,100.00
2023-03-27T08:41:55.065Z,100.00
2023-03-27T08:47:11.927Z,100.00
2023-03-27T08:52:25.009Z,100.00
2023-03-27T08:57:34.450Z,100.00
2023-03-27T09:02:52.068Z,100.00
2023-03-27T09:08:03.148Z,100.00
2023-03-27T09:13:15.499Z,100.00
2023-03-27T09:18:24.288Z,100.00
2023-03-27T09:23:36.132Z,100.00
2023-03-27T09:28:58.669Z,100.00
2023-03-27T09:34:09.054Z,100.00
2023-03-27T09:39:17.216Z,100.00
2023-03-27T09:44:26.897Z,100.00
2023-03-27T09:49:36.892Z,100.00
2023-03-27T09:54:56.141Z,100.00
2023-03-27T10:00:26.838Z,100.00
2023-03-27T10:05:32.982Z,100.00
2023-03-27T10:10:42.059Z,100.00
2023-03-27T10:16:17.910Z,100.00
2023-03-27T10:21:40.424Z,100.00
2023-03-27T10:26:48.216Z,100.00
2023-03-27T10:31:55.630Z,100.00
2023-03-27T10:37:28.351Z,100.00
2023-03-27T10:43:13.136Z,100.00
2023-03-27T10:48:34.160Z,100.00
2023-03-27T10:53:44.569Z,100.00
2023-03-27T10:58:54.114Z,99.15
2023-03-27T11:04:11.433Z,97.12
2023-03-27T11:09:27.009Z,98.27
2023-03-27T11:14:49.391Z,94.55
2023-03-27T11:20:07.584Z,93.81
2023-03-27T11:25:43.546Z,91.71
2023-03-27T11:30:58.608Z,92.50
2023-03-27T11:36:37.575Z,88.88
2023-03-27T11:41:52.188Z,90.33
2023-03-27T11:47:11.566Z,90.58
2023-03-27T11:52:27.309Z,92.09
2023-03-27T11:57:40.422Z,91.51
2023-03-27T12:03:20.499Z,90.68
2023-03-27T12:08:33.488Z,92.14
2023-03-27T12:14:02.685Z,94.47
2023-03-27T12:19:38.191Z,96.66
2023-03-27T12:25:15.415Z,96.07
2023-03-27T12:30:48.532Z,95.65
2023-03-27T12:35:58.469Z,96.28
2023-03-27T12:41:13.883Z,88.83
2023-03-27T12:46:36.448Z,81.23
2023-03-27T12:51:44.520Z,81.70
2023-03-27T12:57:05.280Z,81.88
2023-03-27T13:02:42.983Z,81.78
2023-03-27T13:07:54.987Z,80.38
2023-03-27T13:13:40.143Z,78.09
2023-03-27T13:18:59.657Z,77.96
2023-03-27T13:24:17.379Z,78.15
2023-03-27T13:29:24.928Z,77.95
2023-03-27T13:34:40.373Z,78.23
2023-03-27T13:40:07.301Z,73.59
2023-03-27T13:45:18.811Z,73.94
2023-03-27T13:51:27.124Z,72.49
2023-03-27T13:56:41.324Z,73.39
2023-03-27T14:02:04.762Z,73.86
2023-03-27T14:07:41.469Z,73.87
2023-03-27T14:13:01.547Z,70.80
2023-03-27T14:18:43.921Z,70.38
2023-03-27T14:23:51.831Z,68.87
2023-03-27T14:29:06.126Z,69.18
2023-03-27T14:34:35.325Z,68.75
2023-03-27T14:40:20.595Z,68.30
2023-03-27T14:45:27.955Z,67.31
2023-03-27T14:50:36.288Z,67.07
2023-03-27T14:55:42.686Z,66.35
2023-03-27T15:01:17.496Z,65.71
2023-03-27T15:06:28.409Z,65.42
2023-03-27T15:11:41.065Z,64.45
2023-03-27T15:17:00.538Z,64.38
2023-03-27T15:22:08.462Z,63.73
2023-03-27T15:27:19.511Z,63.73
2023-03-27T15:32:23.679Z,62.73
2023-03-27T15:37:30.878Z,61.48
2023-03-27T15:42:47.715Z,62.24
2023-03-27T15:47:59.984Z,61.91
2023-03-27T15:53:05.636Z,60.69
2023-03-27T15:58:18.445Z,61.32
2023-03-27T16:03:25.655Z,62.13
2023-03-27T16:08:33.779Z,61.95
2023-03-27T16:13:43.347Z,61.77
2023-03-27T16:18:47.666Z,62.03
2023-03-27T16:23:53.308Z,63.61
2023-03-27T16:29:01.722Z,63.40
2023-03-27T16:34:12.417Z,63.67
2023-03-27T16:39:28.795Z,64.72
2023-03-27T16:44:33.137Z,65.56
2023-03-27T16:49:37.466Z,66.20
2023-03-27T16:54:44.750Z,66.61
2023-03-27T16:59:48.646Z,67.42
2023-03-27T17:04:53.333Z,68.50
2023-03-27T17:09:58.812Z,70.66
2023-03-27T17:15:03.673Z,70.88
2023-03-27T17:20:09.034Z,72.54
2023-03-27T17:25:14.514Z,73.15
2023-03-27T17:30:30.527Z,73.90
2023-03-27T17:35:42.301Z,76.22
2023-03-27T17:40:48.141Z,76.91
2023-03-27T17:45:52.159Z,77.76
2023-03-27T17:51:08.240Z,78.65
2023-03-27T17:56:15.280Z,78.27
2023-03-27T18:01:23.174Z,79.34
2023-03-27T18:06:27.944Z,80.35
2023-03-27T18:11:33.575Z,81.05
2023-03-27T18:16:37.908Z,82.75
2023-03-27T18:21:42.199Z,83.83
2023-03-27T18:26:48.173Z,83.94
2023-03-27T18:31:52.373Z,84.66
2023-03-27T18:36:56.406Z,84.54
2023-03-27T18:42:02.455Z,84.82
2023-03-27T18:47:06.693Z,86.33
2023-03-27T18:52:12.056Z,88.33
2023-03-27T18:57:19.956Z,88.54
2023-03-27T19:02:25.908Z,89.29
2023-03-27T19:07:30.820Z,88.61
2023-03-27T19:12:36.993Z,85.94
2023-03-27T19:18:14.238Z,86.18
2023-03-27T19:23:28.235Z,84.70
2023-03-27T19:28:33.735Z,84.39
2023-03-27T19:33:37.829Z,86.62
2023-03-27T19:38:42.929Z,85.68
2023-03-27T19:43:50.171Z,86.42
2023-03-27T19:48:54.288Z,86.05
2023-03-27T19:54:15.125Z,85.83
2023-03-27T19:59:30.406Z,85.46
2023-03-27T20:04:35.668Z,86.14
2023-03-27T20:09:40.078Z,86.49
2023-03-27T20:14:54.623Z,87.42
2023-03-27T20:20:12.051Z,89.23
2023-03-27T20:25:16.297Z,91.02
2023-03-27T20:30:23.160Z,92.76
2023-03-27T20:35:27.394Z,95.08
2023-03-27T20:40:53.002Z,97.49
2023-03-27T20:46:05.450Z,99.02
2023-03-27T20:51:14.697Z,99.26
2023-03-27T20:56:20.841Z,99.69
2023-03-27T21:01:27.468Z,100.00
2023-03-27T21:06:32.079Z,98.47
2023-03-27T21:11:36.619Z,97.66
2023-03-27T21:16:42.417Z,100.00
2023-03-27T21:21:46.929Z,100.00
2023-03-27T21:26:51.244Z,98.91
2023-03-27T21:31:56.973Z,98.80
2023-03-27T21:37:02.760Z,94.99
2023-03-27T21:42:07.089Z,96.47
2023-03-27T21:47:12.608Z,98.43
2023-03-27T21:52:16.704Z,96.92
2023-03-27T21:57:20.757Z,95.81
2023-03-27T22:02:26.556Z,95.18
2023-03-27T22:07:31.041Z,97.27
2023-03-27T22:12:36.074Z,99.75
2023-03-27T22:17:42.186Z,99.68
2023-03-27T22:22:46.607Z,100.00
2023-03-27T22:27:51.111Z,100.00
2023-03-27T22:32:56.687Z,100.00
2023-03-27T22:38:00.924Z,100.00
2023-03-27T22:43:05.181Z,100.00
2023-03-27T22:48:10.958Z,100.00
2023-03-27T22:53:15.063Z,100.00
2023-03-27T22:58:20.186Z,100.00
2023-03-27T23:03:27.438Z,100.00
2023-03-27T23:08:32.006Z,100.00
2023-03-27T23:13:38.052Z,100.00
2023-03-27T23:18:43.735Z,100.00
2023-03-27T23:23:48.094Z,100.00
2023-03-27T23:28:52.593Z,100.00
2023-03-27T23:33:58.291Z,100.00
2023-03-27T23:39:02.824Z,97.79
2023-03-27T23:44:08.265Z,98.13
2023-03-27T23:49:14.860Z,97.31
2023-03-27T23:54:18.961Z,99.48
2023-03-27T23:59:23.238Z,98.58
